Time;durP1;ratioP1;P1;durP2;ratioP2;P2;SDS_P1;SDS_P2;PMS_P1;PMS_P2;Temp;Humidity;BMP_temperature;BMP_pressure;BME280_temperature;BME280_humidity;BME280_pressure;Samples;Min_cycle;Max_cycle;Signal;HPM_P1;HPM_P2
2022/09/11 00:01:39;;;;;;;39.75;24.90;;;;;;;14.62;97.26;101600.59;4951481;28;20048;-76
2022/09/11 00:04:08;;;;;;;38.75;22.83;;;;;;;14.60;97.28;101608.56;4953069;28;20132;-74
2022/09/11 00:06:35;;;;;;;36.13;21.67;;;;;;;14.57;97.07;101608.69;4954266;28;20047;-74
2022/09/11 00:09:05;;;;;;;42.58;23.25;;;;;;;14.58;97.33;101620.16;4951007;28;20398;-75
2022/09/11 00:11:39;;;;;;;43.47;25.23;;;;;;;14.57;97.73;101616.66;4953136;28;20050;-74
2022/09/11 00:14:10;;;;;;;39.80;25.77;;;;;;;14.55;98.01;101615.00;4952478;28;20107;-74
2022/09/11 00:16:41;;;;;;;48.85;24.23;;;;;;;14.57;98.03;101629.94;4952277;28;20040;-74
2022/09/11 00:19:18;;;;;;;47.75;25.15;;;;;;;14.57;98.08;101624.63;4948748;28;20039;-75
2022/09/11 00:21:48;;;;;;;49.33;25.33;;;;;;;14.59;98.41;101627.22;4946164;28;20050;-75
2022/09/11 00:24:16;;;;;;;46.67;27.20;;;;;;;14.62;98.55;101626.22;4950701;28;20047;-75
2022/09/11 00:26:46;;;;;;;48.85;28.15;;;;;;;14.62;98.50;101621.81;4952973;28;20043;-75
2022/09/11 00:29:13;;;;;;;48.08;27.42;;;;;;;14.64;98.62;101627.06;4950059;28;20095;-75
2022/09/11 00:31:40;;;;;;;50.20;27.80;;;;;;;14.63;98.75;101634.16;4952395;28;20051;-75
2022/09/11 00:34:09;;;;;;;49.75;27.60;;;;;;;14.63;98.75;101634.16;4951654;28;20043;-75
2022/09/11 00:36:40;;;;;;;50.90;27.25;;;;;;;14.62;98.90;101635.06;4944978;28;20075;-75
2022/09/11 00:39:13;;;;;;;43.20;23.98;;;;;;;14.62;98.78;101635.06;4937731;28;20055;-75
2022/09/11 00:41:45;;;;;;;43.75;25.63;;;;;;;14.63;98.74;101634.16;4952710;28;20476;-75
2022/09/11 00:44:17;;;;;;;44.85;25.52;;;;;;;14.63;98.55;101633.28;4952176;28;20179;-75
2022/09/11 00:46:54;;;;;;;48.47;28.52;;;;;;;14.60;98.54;101635.09;4950452;28;20048;-75
2022/09/11 00:49:29;;;;;;;49.35;28.27;;;;;;;14.56;98.50;101635.28;4946317;28;20039;-75
2022/09/11 00:52:04;;;;;;;45.03;26.60;;;;;;;14.55;98.31;101642.38;4949212;28;20060;-74
2022/09/11 00:54:42;;;;;;;48.55;27.85;;;;;;;14.52;98.52;101641.63;4952444;28;20055;-75
2022/09/11 00:57:09;;;;;;;52.17;28.08;;;;;;;14.50;98.66;101640.78;4951570;28;20054;-74
2022/09/11 00:59:42;;;;;;;46.47;25.45;;;;;;;14.49;98.74;101637.28;4950152;28;20048;-75
2022/09/11 01:02:18;;;;;;;57.05;30.13;;;;;;;14.45;98.45;101636.50;4951243;28;20039;-75
2022/09/11 01:04:45;;;;;;;49.92;27.38;;;;;;;14.43;98.57;101629.53;4946206;28;20054;-75
2022/09/11 01:07:14;;;;;;;53.58;29.25;;;;;;;14.38;98.58;101629.69;4934878;28;20051;-75
2022/09/11 01:09:42;;;;;;;45.03;27.25;;;;;;;14.36;98.59;101635.97;4950781;28;20153;-72
2022/09/11 01:12:26;;;;;;;60.25;29.40;;;;;;;14.33;98.76;101633.41;4951514;28;20062;-72
2022/09/11 01:15:05;;;;;;;47.30;27.25;;;;;;;14.30;98.95;101637.03;4945491;28;20180;-74
2022/09/11 01:18:04;;;;;;;46.85;24.88;;;;;;;14.31;99.12;101640.53;4931930;28;20476;-75
2022/09/11 01:20:53;;;;;;;47.80;27.58;;;;;;;14.35;99.37;101642.19;4948768;28;20143;-75
2022/09/11 01:24:08;;;;;;;49.00;25.55;;;;;;;14.40;99.43;101643.75;4946266;28;20052;-74
2022/09/11 01:27:03;;;;;;;48.00;28.13;;;;;;;14.41;99.35;101637.53;4947482;28;20058;-74
2022/09/11 01:29:56;;;;;;;51.15;28.17;;;;;;;14.40;99.17;101640.22;4942542;28;20039;-74
2022/09/11 01:32:58;;;;;;;50.72;28.85;;;;;;;14.37;99.03;101635.91;4940395;28;20050;-75
2022/09/11 01:35:57;;;;;;;46.30;27.80;;;;;;;14.34;99.07;101641.34;4928713;28;20552;-74
2022/09/11 01:38:57;;;;;;;49.92;29.48;;;;;;;14.33;98.93;101641.38;4950850;28;20115;-74
2022/09/11 01:41:49;;;;;;;49.75;27.33;;;;;;;14.28;99.05;101642.41;4950795;28;20099;-72
2022/09/11 01:44:30;;;;;;;52.13;28.55;;;;;;;14.26;98.94;101640.69;4926287;28;20439;-74
2022/09/11 01:47:03;;;;;;;51.63;27.52;;;;;;;14.23;98.94;101649.63;4940510;28;20050;-74
2022/09/11 01:50:06;;;;;;;48.55;27.33;;;;;;;14.18;98.87;101651.56;4933523;28;20044;-74
2022/09/11 01:52:54;;;;;;;48.55;26.98;;;;;;;14.14;98.95;101644.63;4949206;28;20103;-76
2022/09/11 01:55:33;;;;;;;48.15;27.35;;;;;;;14.12;98.89;101651.75;4949464;28;20095;-76
2022/09/11 01:58:29;;;;;;;44.28;26.38;;;;;;;14.08;98.84;101652.78;4942497;28;20483;-75
2022/09/11 02:01:26;;;;;;;43.60;26.70;;;;;;;14.04;98.77;101659.09;4951469;28;20550;-75
2022/09/11 02:04:09;;;;;;;50.10;26.08;;;;;;;14.05;98.90;101663.47;4950018;28;20039;-76
2022/09/11 02:06:48;;;;;;;56.58;26.80;;;;;;;14.04;99.09;101669.69;4943344;28;20511;-76
2022/09/11 02:09:23;;;;;;;54.25;27.77;;;;;;;14.03;99.01;101665.31;4949747;28;20051;-75
2022/09/11 02:11:56;;;;;;;57.00;27.55;;;;;;;14.01;99.21;101675.97;4936933;28;20546;-73
2022/09/11 02:14:34;;;;;;;57.80;29.65;;;;;;;13.97;99.18;101680.50;4951612;28;20620;-73
2022/09/11 02:17:14;;;;;;;51.97;26.85;;;;;;;13.98;99.33;101676.94;4950535;28;20047;-72
2022/09/11 02:19:42;;;;;;;60.55;30.05;;;;;;;13.95;99.25;101677.03;4935453;28;20052;-73
2022/09/11 02:22:09;;;;;;;63.53;30.08;;;;;;;13.95;99.31;101681.44;4939214;28;20046;-73
2022/09/11 02:24:37;;;;;;;58.70;29.77;;;;;;;13.94;99.37;101677.94;4955096;28;20618;-73
2022/09/11 02:27:10;;;;;;;63.15;28.95;;;;;;;13.95;99.50;101674.38;4955088;28;20083;-73
2022/09/11 02:29:38;;;;;;;64.97;29.30;;;;;;;13.94;99.52;101671.75;4954306;28;20091;-73
2022/09/11 02:32:05;;;;;;;65.20;30.55;;;;;;;13.91;99.77;101675.38;4953689;28;20480;-71
2022/09/11 02:34:36;;;;;;;57.45;29.92;;;;;;;13.92;99.54;101676.25;4954430;28;20044;-72
2022/09/11 02:37:24;;;;;;;57.30;27.25;;;;;;;13.89;99.53;101674.56;4951224;28;20071;-72
2022/09/11 02:40:25;;;;;;;59.53;27.38;;;;;;;13.89;99.76;101671.03;4936045;28;20503;-72
2022/09/11 02:43:29;;;;;;;59.15;27.38;;;;;;;13.90;99.80;101678.94;4954820;28;20054;-72
2022/09/11 02:46:11;;;;;;;52.53;28.20;;;;;;;13.89;99.60;101686.94;4941501;28;20036;-75
2022/09/11 02:49:08;;;;;;;50.38;25.83;;;;;;;13.84;99.52;101680.94;4939064;28;20463;-75
2022/09/11 02:52:01;;;;;;;48.17;26.98;;;;;;;13.80;99.31;101694.28;4930376;28;20078;-74
2022/09/11 02:55:15;;;;;;;59.22;27.17;;;;;;;13.79;99.72;101683.69;4936262;28;20040;-74
2022/09/11 02:57:58;;;;;;;50.53;26.33;;;;;;;13.81;99.93;101687.16;4949590;28;20088;-74
2022/09/11 03:00:26;;;;;;;53.40;26.65;;;;;;;13.83;100.00;101690.66;4941046;28;20051;-74
2022/09/11 03:02:53;;;;;;;54.47;27.35;;;;;;;13.87;100.00;101697.59;4938516;28;20080;-74
2022/09/11 03:05:22;;;;;;;49.40;27.20;;;;;;;13.90;100.00;101696.63;4947863;28;20048;-76
2022/09/11 03:07:49;;;;;;;53.15;27.08;;;;;;;13.93;100.00;101701.84;4945754;28;20048;-76
2022/09/11 03:10:16;;;;;;;57.35;29.60;;;;;;;13.93;100.00;101700.06;4936511;28;20044;-76
2022/09/11 03:12:43;;;;;;;62.42;31.17;;;;;;;13.94;100.00;101704.44;4938798;28;20054;-76
2022/09/11 03:15:11;;;;;;;63.78;30.58;;;;;;;13.94;100.00;101699.16;4953785;28;20127;-75
2022/09/11 03:17:41;;;;;;;66.45;31.00;;;;;;;13.95;100.00;101695.59;4936780;28;20094;-76
2022/09/11 03:20:12;;;;;;;58.63;30.42;;;;;;;13.95;100.00;101703.53;4952906;28;20044;-77
2022/09/11 03:22:40;;;;;;;66.80;32.45;;;;;;;13.97;100.00;101706.13;4952540;28;20134;-77
2022/09/11 03:25:07;;;;;;;71.88;32.85;;;;;;;13.98;100.00;101699.91;4946632;28;20048;-76
2022/09/11 03:27:37;;;;;;;59.97;28.75;;;;;;;14.00;100.00;101703.38;4936391;28;20048;-74
2022/09/11 03:30:08;;;;;;;66.50;31.88;;;;;;;14.01;100.00;101702.47;4953484;28;20051;-76
2022/09/11 03:32:35;;;;;;;57.45;28.98;;;;;;;14.03;100.00;101713.91;4953187;28;20044;-76
2022/09/11 03:35:06;;;;;;;61.42;29.52;;;;;;;14.05;100.00;101704.09;4950331;28;20048;-76
2022/09/11 03:37:33;;;;;;;50.72;27.67;;;;;;;14.06;100.00;101697.88;4953231;28;20050;-76
2022/09/11 03:40:01;;;;;;;55.13;30.52;;;;;;;14.06;100.00;101705.84;4931093;28;20134;-74
2022/09/11 03:42:29;;;;;;;60.45;29.27;;;;;;;14.10;100.00;101703.97;4951689;28;20051;-74
2022/09/11 03:44:56;;;;;;;62.72;30.73;;;;;;;14.13;100.00;101710.06;4936608;28;20058;-74
2022/09/11 03:47:23;;;;;;;63.75;28.73;;;;;;;14.10;99.96;101704.84;4951833;28;20932;-77
2022/09/11 03:49:53;;;;;;;64.00;30.75;;;;;;;14.08;99.69;101697.84;4936339;28;20539;-79
2022/09/11 03:52:21;;;;;;;62.42;29.05;;;;;;;14.06;99.55;101700.53;4933534;28;20058;-79
2022/09/11 03:54:49;;;;;;;62.58;30.08;;;;;;;14.03;99.48;101697.13;4950313;28;20051;-78
2022/09/11 03:57:17;;;;;;;71.95;29.25;;;;;;;14.03;99.46;101705.97;4950689;28;20047;-75
2022/09/11 03:59:44;;;;;;;82.85;31.13;;;;;;;14.03;99.53;101708.59;4952761;28;20550;-75
2022/09/11 04:02:11;;;;;;;158.38;31.20;;;;;;;14.03;99.61;101716.56;4935726;28;20103;-75
2022/09/11 04:04:40;;;;;;;238.10;36.72;;;;;;;14.04;99.87;101706.81;4956363;28;20048;-74
2022/09/11 04:07:07;;;;;;;300.73;34.55;;;;;;;14.05;99.75;101722.66;4942260;28;20044;-75
2022/09/11 04:09:34;;;;;;;470.20;36.33;;;;;;;14.04;99.81;101712.97;4952573;28;20046;-75
2022/09/11 04:12:01;;;;;;;451.85;38.20;;;;;;;14.05;99.47;101727.09;4951834;28;20043;-73
2022/09/11 04:14:31;;;;;;;723.83;48.80;;;;;;;14.06;99.67;101726.19;4951157;28;20062;-74
2022/09/11 04:16:58;;;;;;;463.45;35.17;;;;;;;14.03;99.79;101734.25;4941065;28;20079;-74
2022/09/11 04:19:28;;;;;;;489.33;40.63;;;;;;;14.04;99.78;101735.97;4943330;28;20123;-73
2022/09/11 04:21:56;;;;;;;628.85;46.78;;;;;;;14.02;99.56;101736.03;4945950;28;20123;-74
2022/09/11 04:24:23;;;;;;;491.27;40.38;;;;;;;14.03;99.79;101739.53;4935246;28;20044;-73
2022/09/11 04:26:52;;;;;;;573.22;48.92;;;;;;;14.02;99.79;101737.78;4934551;28;20040;-74
2022/09/11 04:29:27;;;;;;;388.40;35.08;;;;;;;14.00;99.84;101732.56;4940369;28;20059;-74
2022/09/11 04:31:56;;;;;;;441.27;35.15;;;;;;;14.02;100.00;101738.69;4936218;28;20043;-74
2022/09/11 04:34:27;;;;;;;471.70;39.70;;;;;;;14.01;99.83;101736.06;4944867;28;20051;-74
2022/09/11 04:36:55;;;;;;;528.03;40.97;;;;;;;14.00;99.80;101731.66;4951946;28;20095;-76
2022/09/11 04:39:22;;;;;;;518.30;43.72;;;;;;;14.00;99.96;101729.00;4934126;28;20063;-75
2022/09/11 04:41:49;;;;;;;420.85;38.50;;;;;;;14.01;99.99;101725.47;4933561;28;20055;-75
2022/09/11 04:44:17;;;;;;;522.20;43.67;;;;;;;14.03;100.00;101728.94;4961402;28;20039;-75
2022/09/11 04:46:45;;;;;;;392.92;36.33;;;;;;;14.02;100.00;101729.84;4957071;28;20062;-75
2022/09/11 04:49:13;;;;;;;317.00;36.35;;;;;;;14.03;100.00;101734.25;4957199;28;20553;-75
2022/09/11 04:51:40;;;;;;;587.28;50.10;;;;;;;14.02;100.00;101728.09;4935731;28;20059;-74
2022/09/11 04:54:20;;;;;;;488.13;43.70;;;;;;;14.01;99.99;101733.41;4958155;28;20051;-75
2022/09/11 04:56:47;;;;;;;614.20;48.15;;;;;;;14.01;100.00;101729.00;4940928;28;20083;-76
2022/09/11 04:59:21;;;;;;;380.80;40.13;;;;;;;14.01;100.00;101731.66;4942000;28;20050;-75
2022/09/11 05:01:54;;;;;;;291.13;33.10;;;;;;;14.03;100.00;101734.25;4943610;28;20043;-76
2022/09/11 05:04:22;;;;;;;369.20;41.78;;;;;;;14.06;100.00;101742.09;4958093;28;20049;-75
2022/09/11 05:06:53;;;;;;;369.48;40.58;;;;;;;14.08;100.00;101738.47;4943806;28;20095;-75
2022/09/11 05:09:21;;;;;;;353.13;38.17;;;;;;;14.10;100.00;101735.78;4958171;28;20043;-75
2022/09/11 05:11:50;;;;;;;628.15;48.53;;;;;;;14.11;100.00;101745.47;4954801;28;20080;-76
2022/09/11 05:14:17;;;;;;;568.80;42.08;;;;;;;14.09;100.00;101737.56;4954774;28;20051;-73
2022/09/11 05:16:47;;;;;;;401.30;35.83;;;;;;;14.09;100.00;101739.38;4961591;28;20087;-75
2022/09/11 05:19:17;;;;;;;407.63;33.95;;;;;;;14.09;100.00;101748.19;4937336;28;20047;-73
2022/09/11 05:21:45;;;;;;;493.30;35.80;;;;;;;14.06;100.00;101747.41;4949356;28;20040;-75
2022/09/11 05:24:13;;;;;;;446.70;33.25;;;;;;;13.99;99.42;101757.31;4938469;28;20047;-75
2022/09/11 05:26:42;;;;;;;480.38;30.50;;;;;;;13.92;99.32;101759.28;4948305;28;20052;-74
2022/09/11 05:29:14;;;;;;;305.38;28.08;;;;;;;13.87;99.75;101761.22;4934378;28;20054;-75
2022/09/11 05:31:46;;;;;;;298.00;28.88;;;;;;;13.88;100.00;101765.59;4951719;28;20048;-76
2022/09/11 05:34:16;;;;;;;320.08;27.13;;;;;;;13.93;100.00;101774.28;4935160;28;20038;-75
2022/09/11 05:36:48;;;;;;;292.92;25.15;;;;;;;13.92;99.93;101769.03;4934472;28;20071;-75
2022/09/11 05:39:41;;;;;;;261.10;27.40;;;;;;;13.93;99.97;101768.97;4932839;28;20044;-75
2022/09/11 05:42:11;;;;;;;399.38;31.98;;;;;;;13.96;100.00;101778.63;4936917;28;20662;-76
2022/09/11 05:44:42;;;;;;;310.45;31.30;;;;;;;13.97;99.94;101777.69;4946916;28;20819;-76
2022/09/11 05:47:09;;;;;;;581.65;39.60;;;;;;;14.00;99.93;101787.34;4934861;28;20507;-75
2022/09/11 05:49:39;;;;;;;445.00;37.22;;;;;;;14.00;99.77;101795.28;4949215;28;20091;-75
2022/09/11 05:52:06;;;;;;;634.72;43.53;;;;;;;14.01;100.00;101797.03;4930164;28;20063;-73
2022/09/11 05:54:35;;;;;;;250.77;29.98;;;;;;;14.05;100.00;101802.19;4894529;29;20053;-76
2022/09/11 05:57:05;;;;;;;356.23;33.30;;;;;;;14.05;100.00;101801.34;4897423;29;20428;-76
2022/09/11 05:59:36;;;;;;;256.10;29.17;;;;;;;14.10;100.00;101807.34;4928669;29;20104;-76
2022/09/11 06:02:03;;;;;;;213.45;26.27;;;;;;;14.15;100.00;101805.47;4919711;29;20055;-76
2022/09/11 06:04:42;;;;;;;301.05;30.35;;;;;;;14.18;99.96;101807.13;4916677;29;20073;-76
2022/09/11 06:07:09;;;;;;;265.73;30.17;;;;;;;14.22;99.82;101808.81;4919367;28;20052;-74
2022/09/11 06:09:39;;;;;;;423.02;36.70;;;;;;;14.25;100.00;101814.88;4911410;29;20598;-72
2022/09/11 06:12:06;;;;;;;427.30;37.08;;;;;;;14.32;100.00;101819.97;4914235;29;20053;-72
2022/09/11 06:14:34;;;;;;;102.78;27.95;;;;;;;14.37;100.00;101831.34;4911838;29;20631;-72
2022/09/11 06:17:05;;;;;;;523.25;41.83;;;;;;;14.42;100.00;101830.28;4910399;29;20443;-72
2022/09/11 06:19:32;;;;;;;284.77;33.50;;;;;;;14.48;100.00;101836.28;4926500;28;20044;-72
2022/09/11 06:21:59;;;;;;;230.00;32.90;;;;;;;14.50;100.00;101834.47;4915940;29;20040;-72
2022/09/11 06:24:31;;;;;;;302.58;32.13;;;;;;;14.54;99.96;101842.28;4908414;29;20044;-72
2022/09/11 06:26:58;;;;;;;168.48;26.10;;;;;;;14.63;99.78;101845.56;4915093;29;20497;-72
2022/09/11 06:29:27;;;;;;;430.75;35.53;;;;;;;14.69;99.58;101848.94;4912744;29;20048;-72
2022/09/11 06:31:54;;;;;;;286.35;28.70;;;;;;;14.79;98.86;101843.31;4914423;29;20064;-72
2022/09/11 06:34:26;;;;;;;189.50;25.52;;;;;;;14.82;97.50;101828.16;4914656;29;20568;-72
2022/09/11 06:36:54;;;;;;;534.92;35.72;;;;;;;14.85;97.44;101836.03;4911969;29;21051;-72
2022/09/11 06:39:22;;;;;;;233.45;26.98;;;;;;;14.88;97.38;101835.06;4927426;29;20055;-72
2022/09/11 06:41:52;;;;;;;312.08;31.40;;;;;;;14.93;97.02;101838.44;4914413;29;20044;-72
2022/09/11 06:44:26;;;;;;;;;;;;;;;14.96;97.39;101837.47;4912405;29;20439;-72
2022/09/11 06:46:56;;;;;;;153.40;30.13;;;;;;;15.10;97.66;101837.00;4915849;29;19975;-72
2022/09/11 06:49:24;;;;;;;152.85;25.45;;;;;;;15.26;97.16;101845.34;4923170;29;20044;-73
2022/09/11 06:52:10;;;;;;;151.40;26.08;;;;;;;15.21;95.94;101846.34;4930576;28;20070;-73
2022/09/11 06:54:41;;;;;;;89.82;26.23;;;;;;;15.18;96.41;101841.16;4955341;28;20507;-72
2022/09/11 06:57:15;;;;;;;;;;;;;;;15.20;96.75;101839.31;4958796;28;20142;-73
2022/09/11 06:59:42;;;;;;;86.97;21.63;;;;;;;15.30;96.84;101852.28;4945312;28;19926;-73
2022/09/11 07:02:10;;;;;;;58.45;23.65;;;;;;;15.35;96.33;101847.66;4941841;28;20459;-73
2022/09/11 07:04:38;;;;;;;60.22;24.88;;;;;;;15.37;96.20;101849.34;4943516;28;20051;-72
2022/09/11 07:07:06;;;;;;;54.92;24.58;;;;;;;15.38;96.28;101847.56;4961975;28;20048;-73
2022/09/11 07:09:41;;;;;;;81.30;26.38;;;;;;;15.40;96.07;101839.53;4944876;28;20105;-72
2022/09/11 07:12:10;;;;;;;93.28;26.58;;;;;;;15.42;96.17;101848.34;4952201;28;20145;-73
2022/09/11 07:14:40;;;;;;;141.70;26.38;;;;;;;15.42;95.88;101840.38;4935048;28;20523;-73
2022/09/11 07:17:16;;;;;;;83.68;25.70;;;;;;;15.42;95.66;101837.69;4940400;28;20047;-73
2022/09/11 07:19:46;;;;;;;54.95;23.58;;;;;;;15.47;95.54;101841.06;4952129;28;20527;-72
2022/09/11 07:22:14;;;;;;;80.25;23.63;;;;;;;15.49;95.65;101840.09;4950011;28;20039;-73
2022/09/11 07:24:46;;;;;;;82.93;23.70;;;;;;;15.49;95.44;101847.19;4934334;28;20044;-72
2022/09/11 07:27:14;;;;;;;64.43;23.55;;;;;;;15.45;95.05;101849.09;4945255;28;20055;-73
2022/09/11 07:29:41;;;;;;;52.20;22.23;;;;;;;15.43;94.92;101845.59;4952415;28;20159;-72
2022/09/11 07:32:08;;;;;;;46.47;23.33;;;;;;;15.42;95.04;101848.34;4946430;28;20123;-73
2022/09/11 07:34:38;;;;;;;47.90;25.05;;;;;;;15.45;94.22;101849.09;4924178;28;20044;-73
2022/09/11 07:37:08;;;;;;;53.92;24.70;;;;;;;15.52;93.91;101850.59;4952207;28;20579;-69
2022/09/11 07:39:37;;;;;;;55.50;25.50;;;;;;;15.60;93.61;101858.31;4928123;28;20044;-69
2022/09/11 07:42:09;;;;;;;53.72;26.45;;;;;;;15.67;93.82;101857.16;4964105;28;20056;-69
2022/09/11 07:44:37;;;;;;;45.60;26.92;;;;;;;15.82;94.37;101860.22;4949355;28;20838;-69
2022/09/11 07:47:04;;;;;;;48.50;27.42;;;;;;;15.98;94.42;101872.03;4939781;28;20546;-70
2022/09/11 07:49:37;;;;;;;148.82;25.13;;;;;;;16.06;93.51;101870.91;4934643;28;20047;-70
2022/09/11 07:52:05;;;;;;;198.80;27.30;;;;;;;16.02;92.69;101866.63;4947186;28;20123;-69
2022/09/11 07:54:43;;;;;;;72.78;27.02;;;;;;;16.01;92.62;101871.09;4942079;28;20491;-70
2022/09/11 07:57:12;;;;;;;80.25;24.63;;;;;;;16.08;92.87;101872.59;4941282;28;20039;-68
2022/09/11 07:59:39;;;;;;;43.25;26.05;;;;;;;16.13;92.22;101870.59;4954593;28;20507;-70
2022/09/11 08:02:10;;;;;;;93.60;26.92;;;;;;;16.23;92.32;101878.22;4939043;28;20054;-71
2022/09/11 08:04:38;;;;;;;55.92;26.65;;;;;;;16.29;92.18;101872.69;4946550;28;20055;-69
2022/09/11 08:07:05;;;;;;;108.90;27.48;;;;;;;16.29;90.81;101884.19;4955384;28;20120;-69
2022/09/11 08:09:33;;;;;;;61.13;26.70;;;;;;;16.29;91.08;101892.19;4938613;28;20094;-70
2022/09/11 08:12:06;;;;;;;43.72;26.33;;;;;;;16.33;91.19;101895.59;4963580;28;20123;-70
2022/09/11 08:14:35;;;;;;;43.40;25.50;;;;;;;16.38;91.10;101895.44;4939435;28;20048;-69
2022/09/11 08:17:30;;;;;;;60.30;27.38;;;;;;;16.36;91.00;101898.13;4954800;28;20550;-69
2022/09/11 08:19:58;;;;;;;202.75;27.75;;;;;;;16.34;91.01;101899.13;4953453;28;20543;-69
2022/09/11 08:22:25;;;;;;;48.80;25.50;;;;;;;16.34;91.07;101897.31;4935440;28;20047;-70
2022/09/11 08:24:52;;;;;;;81.88;23.85;;;;;;;16.38;90.71;101906.09;4952738;28;20051;-70
2022/09/11 08:27:21;;;;;;;46.58;25.73;;;;;;;16.38;90.30;101909.59;4950658;28;20798;-70
2022/09/11 08:29:49;;;;;;;44.25;26.70;;;;;;;16.40;90.88;101910.41;4936644;28;20099;-71
2022/09/11 08:32:17;;;;;;;51.42;25.83;;;;;;;16.48;91.11;101911.91;4954305;28;20047;-71
2022/09/11 08:34:44;;;;;;;37.38;24.33;;;;;;;16.57;91.16;101908.91;4951396;28;20062;-71
2022/09/11 08:37:11;;;;;;;40.63;25.35;;;;;;;16.69;91.20;101918.19;4941309;28;20043;-70
2022/09/11 08:39:39;;;;;;;39.53;25.20;;;;;;;16.72;89.02;101915.41;4935173;28;20151;-71
2022/09/11 08:42:15;;;;;;;41.33;25.13;;;;;;;16.76;88.48;101917.03;4952518;28;20040;-71
2022/09/11 08:44:53;;;;;;;39.35;26.35;;;;;;;16.74;87.89;101917.09;4939725;28;20127;-71
2022/09/11 08:47:30;;;;;;;39.65;23.77;;;;;;;16.76;88.04;101909.91;4934407;28;20051;-76
2022/09/11 08:50:10;;;;;;;38.28;25.65;;;;;;;16.84;87.99;101908.75;4937446;28;20055;-77
2022/09/11 08:52:39;;;;;;;44.50;27.63;;;;;;;16.93;88.23;101913.72;4938810;28;20060;-76
2022/09/11 08:55:26;;;;;;;37.53;23.95;;;;;;;17.05;86.50;101915.03;4924960;29;20408;-76
2022/09/11 08:58:12;;;;;;;33.87;21.70;;;;;;;16.99;85.94;101916.16;4913043;28;20120;-76
2022/09/11 09:01:16;;;;;;;34.97;22.95;;;;;;;16.92;86.37;101923.47;4907501;29;20144;-74
2022/09/11 09:04:31;;;;;;;38.67;25.20;;;;;;;16.88;86.37;101916.56;4912781;29;20040;-74
2022/09/11 09:07:24;;;;;;;36.75;22.30;;;;;;;16.88;86.35;101919.22;4936113;28;20092;-75
2022/09/11 09:10:27;;;;;;;35.78;23.08;;;;;;;16.91;86.75;101916.41;4929666;28;20111;-75
2022/09/11 09:13:36;;;;;;;33.05;22.70;;;;;;;17.00;86.60;101923.22;4925265;28;20049;-76
2022/09/11 09:16:24;;;;;;;34.00;25.20;;;;;;;17.10;87.05;101929.03;4907873;29;20052;-75
2022/09/11 09:19:13;;;;;;;39.08;25.45;;;;;;;17.19;86.82;101920.69;4912274;29;20084;-74
2022/09/11 09:21:59;;;;;;;37.42;24.90;;;;;;;17.27;87.58;101930.16;4920595;29;20041;-75
2022/09/11 09:24:35;;;;;;;37.88;24.88;;;;;;;17.38;87.41;101925.25;4926886;28;20076;-74
2022/09/11 09:27:05;;;;;;;39.33;25.73;;;;;;;17.48;86.96;101937.25;4918503;29;20101;-72
2022/09/11 09:29:38;;;;;;;36.45;26.27;;;;;;;17.56;86.44;101938.72;4911362;29;20136;-73
2022/09/11 09:32:20;;;;;;;40.05;27.15;;;;;;;17.57;86.14;101946.63;4922685;28;20157;-73
2022/09/11 09:34:56;;;;;;;39.42;26.38;;;;;;;17.57;86.26;101937.78;4911898;29;20083;-74
2022/09/11 09:37:25;;;;;;;31.88;23.08;;;;;;;17.62;86.45;101939.34;4919814;29;20128;-73
2022/09/11 09:39:53;;;;;;;35.25;24.48;;;;;;;17.71;86.37;101943.38;4910246;29;20049;-73
2022/09/11 09:42:58;;;;;;;37.15;26.88;;;;;;;17.80;86.25;101948.34;4924717;28;20045;-73
2022/09/11 09:46:13;;;;;;;35.72;26.23;;;;;;;17.88;86.17;101947.13;4914625;29;20048;-74
2022/09/11 09:48:40;;;;;;;33.22;24.48;;;;;;;17.93;85.73;101951.34;4895447;29;20603;-74
2022/09/11 09:51:12;;;;;;;33.45;23.20;;;;;;;17.96;84.50;101945.88;4924031;28;20052;-74
2022/09/11 09:53:49;;;;;;;36.92;25.25;;;;;;;17.91;84.17;101946.97;4951121;28;20083;-72
2022/09/11 09:56:20;;;;;;;37.40;26.42;;;;;;;17.87;84.06;101948.91;4947158;28;20052;-73
2022/09/11 09:59:06;;;;;;;32.83;23.33;;;;;;;17.90;83.77;101955.94;4945174;28;20097;-73
2022/09/11 10:01:46;;;;;;;34.67;26.27;;;;;;;17.83;83.58;101953.53;4948027;28;20115;-72
2022/09/11 10:04:21;;;;;;;36.83;27.35;;;;;;;17.87;83.91;101951.59;4947632;28;20512;-72
2022/09/11 10:06:54;;;;;;;38.00;25.15;;;;;;;17.92;82.83;101946.94;4950242;28;20602;-72
2022/09/11 10:09:26;;;;;;;37.20;25.05;;;;;;;17.85;81.95;101949.00;4947672;28;20044;-72
2022/09/11 10:12:01;;;;;;;35.13;24.67;;;;;;;17.75;82.82;101949.47;4946239;28;20114;-72
2022/09/11 10:14:33;;;;;;;33.13;23.30;;;;;;;17.74;83.27;101948.59;4948854;28;20047;-71
2022/09/11 10:17:35;;;;;;;35.53;26.25;;;;;;;17.85;83.41;101948.16;4956362;28;20046;-71
2022/09/11 10:20:17;;;;;;;33.72;23.92;;;;;;;17.97;83.10;101946.75;4957528;28;20048;-71
2022/09/11 10:22:45;;;;;;;33.45;23.67;;;;;;;18.07;82.99;101940.09;4955179;28;20431;-71
2022/09/11 10:25:26;;;;;;;31.10;21.35;;;;;;;18.17;82.06;101945.88;4954774;28;20435;-71
2022/09/11 10:28:01;;;;;;;30.00;23.35;;;;;;;18.22;81.84;101951.00;4952436;28;20079;-73
2022/09/11 10:30:36;;;;;;;31.65;22.42;;;;;;;18.34;81.25;101958.44;4949840;28;20036;-73
2022/09/11 10:33:30;;;;;;;31.92;23.35;;;;;;;18.52;81.61;101955.91;4951026;28;20075;-73
2022/09/11 10:36:03;;;;;;;30.38;20.80;;;;;;;18.77;81.72;101960.97;4950216;28;20048;-73
2022/09/11 10:38:44;;;;;;;26.58;17.88;;;;;;;18.99;79.85;101955.47;4949689;28;20046;-73
2022/09/11 10:41:11;;;;;;;25.20;20.17;;;;;;;19.13;78.21;101959.28;4949628;28;20032;-73
2022/09/11 10:44:05;;;;;;;26.92;20.73;;;;;;;19.24;78.30;101955.13;4961748;28;20039;-73
2022/09/11 10:46:39;;;;;;;24.33;18.93;;;;;;;19.44;78.56;101952.41;4952635;28;20043;-72
2022/09/11 10:49:18;;;;;;;25.73;19.02;;;;;;;19.60;78.68;101948.03;4950460;28;20083;-73
2022/09/11 10:52:05;;;;;;;21.45;16.30;;;;;;;19.69;74.44;101944.00;4947588;28;20052;-73
2022/09/11 10:54:57;;;;;;;20.83;16.13;;;;;;;19.80;73.60;101948.81;4940677;28;20167;-72
2022/09/11 10:57:44;;;;;;;24.25;16.90;;;;;;;19.93;74.34;101944.59;4950916;28;21068;-72
2022/09/11 11:00:30;;;;;;;17.35;14.30;;;;;;;19.98;74.30;101945.19;4951721;28;20044;-72
2022/09/11 11:03:15;;;;;;;18.15;13.20;;;;;;;20.19;73.02;101941.47;4951657;28;20427;-73
2022/09/11 11:06:26;;;;;;;18.08;13.18;;;;;;;20.38;72.57;101941.31;4950738;28;20467;-73
2022/09/11 11:09:39;;;;;;;19.80;15.55;;;;;;;20.31;72.54;101938.09;4950395;28;20523;-73
2022/09/11 11:12:20;;;;;;;19.73;15.48;;;;;;;20.51;71.17;101937.03;4934572;28;20083;-72
2022/09/11 11:15:23;;;;;;;15.48;12.57;;;;;;;20.54;72.17;101936.88;4942860;28;20047;-72
2022/09/11 11:18:30;;;;;;;20.77;13.70;;;;;;;20.75;71.22;101934.84;4948986;28;20122;-73
2022/09/11 11:21:18;;;;;;;17.85;13.40;;;;;;;21.04;70.80;101931.44;4949277;28;20475;-72
2022/09/11 11:24:45;;;;;;;15.35;12.18;;;;;;;21.29;70.18;101935.38;4950626;28;20500;-73
2022/09/11 11:27:21;;;;;;;15.82;12.25;;;;;;;21.65;67.27;101943.09;4922430;28;20115;-72
2022/09/11 11:30:02;;;;;;;15.02;11.75;;;;;;;21.69;66.86;101933.03;4950796;28;20140;-73
2022/09/11 11:32:42;;;;;;;14.82;12.30;;;;;;;21.57;65.31;101942.66;4945115;28;20611;-73
2022/09/11 11:35:21;;;;;;;14.32;12.45;;;;;;;21.79;65.92;101941.41;4937646;28;20124;-73
2022/09/11 11:38:01;;;;;;;15.85;11.75;;;;;;;21.93;66.26;101945.94;4946594;28;20055;-73
2022/09/11 11:40:53;;;;;;;13.20;11.30;;;;;;;22.21;66.60;101953.16;4952241;28;20896;-73
2022/09/11 11:43:27;;;;;;;12.27;10.30;;;;;;;22.42;65.41;101948.28;4953083;28;20530;-73
2022/09/11 11:46:01;;;;;;;13.88;11.32;;;;;;;22.37;63.38;101942.31;4952718;28;20118;-73